Time;durP1;ratioP1;P1;durP2;ratioP2;P2;SDS_P1;SDS_P2;PMS_P1;PMS_P2;Temp;Humidity;BMP_temperature;BMP_pressure;BME280_temperature;BME280_humidity;BME280_pressure;Samples;Min_cycle;Max_cycle;Signal;HPM_P1;HPM_P2
2022/05/05 10:29:52;;;;;;;4.13;3.72;;;;;;;;;;5016443;28;20234;-85
2022/05/05 10:32:57;;;;;;;5.68;2.97;;;;;;;;;;4976820;28;20233;-86
2022/05/05 10:36:22;;;;;;;4.70;3.30;;;;;;;;;;4983980;28;20211;-87
2022/05/05 10:39:46;;;;;;;4.00;3.08;;;;;;;;;;4972445;28;20519;-88
2022/05/05 10:42:51;;;;;;;3.72;3.17;;;;;;;;;;4965839;28;20197;-87
2022/05/05 10:45:55;;;;;;;5.47;3.50;;;;;;;;;;4968718;28;20185;-85
2022/05/05 10:49:35;;;;;;;6.53;3.72;;;;;;;;;;4979344;28;20224;-85
2022/05/05 10:52:50;;;;;;;5.43;2.90;;;;;;;;;;4978408;28;20195;-85
2022/05/05 10:55:55;;;;;;;4.82;3.00;;;;;;;;;;4985313;28;20192;-85
2022/05/05 10:59:04;;;;;;;4.57;2.90;;;;;;;;;;4978527;28;20247;-85
2022/05/05 11:02:17;;;;;;;7.00;2.72;;;;;;;;;;4939715;29;20192;-85
2022/05/05 11:05:27;;;;;;;4.13;2.40;;;;;;;;;;4951295;29;20195;-85
2022/05/05 11:08:33;;;;;;;3.08;2.78;;;;;;;;;;4959913;28;20227;-85
2022/05/05 11:11:40;;;;;;;2.53;2.33;;;;;;;;;;4959465;29;20208;-85
2022/05/05 11:21:37;;;;;;;5.90;3.67;;;;;;;;;;4957186;29;20183;-84
2022/05/05 11:24:45;;;;;;;3.90;2.60;;;;;;;;;;4947918;29;20195;-85
2022/05/05 11:27:56;;;;;;;5.90;2.80;;;;;;;;;;4948730;28;20724;-85
2022/05/05 11:31:00;;;;;;;4.43;2.53;;;;;;;;;;4967915;28;20217;-85
2022/05/05 11:34:05;;;;;;;2.67;2.47;;;;;;;;;;4987351;28;20231;-85
2022/05/05 11:37:11;;;;;;;4.22;2.50;;;;;;;;;;4976030;28;20227;-85
2022/05/05 11:40:16;;;;;;;3.47;2.60;;;;;;;;;;4989041;28;20516;-85
2022/05/05 11:46:44;;;;;;;3.30;2.40;;;;;;;;;;5019468;28;20192;-85
2022/05/05 11:49:52;;;;;;;2.83;2.53;;;;;;;;;;4994627;28;20193;-85
2022/05/05 11:52:56;;;;;;;59.97;6.35;;;;;;;;;;5006968;28;20188;-85
2022/05/05 11:56:00;;;;;;;3.08;2.35;;;;;;;;;;4996237;28;20214;-84
2022/05/05 12:02:33;;;;;;;2.88;2.33;;;;;;;;;;5004144;28;20195;-86
2022/05/05 12:05:37;;;;;;;2.33;2.13;;;;;;;;;;5002110;28;20653;-86
2022/05/05 12:08:42;;;;;;;2.23;2.03;;;;;;;;;;5003833;28;20223;-86
2022/05/05 12:11:46;;;;;;;2.85;2.15;;;;;;;;;;5004414;28;20204;-87
2022/05/05 12:14:57;;;;;;;2.45;2.25;;;;;;;;;;5004524;28;20692;-87
2022/05/05 12:18:01;;;;;;;3.30;2.03;;;;;;;;;;5003895;28;20236;-87
2022/05/05 12:21:05;;;;;;;2.28;1.83;;;;;;;;;;4999152;28;20227;-87
2022/05/05 12:24:10;;;;;;;2.90;1.92;;;;;;;;;;5015597;28;20194;-87
2022/05/05 12:27:15;;;;;;;2.15;1.65;;;;;;;;;;4992303;28;20227;-87
2022/05/05 12:30:29;;;;;;;4.07;2.08;;;;;;;;;;4962283;28;20215;-86
2022/05/05 12:33:37;;;;;;;3.42;2.58;;;;;;;;;;4984864;28;20689;-86
2022/05/05 12:36:41;;;;;;;3.25;2.40;;;;;;;;;;4973835;28;20189;-87
2022/05/05 12:40:05;;;;;;;2.88;2.40;;;;;;;;;;5012984;28;20204;-86
2022/05/05 12:43:12;;;;;;;5.60;2.20;;;;;;;;;;4980696;28;20188;-86
2022/05/05 12:46:16;;;;;;;7.43;2.50;;;;;;;;;;4985591;28;20201;-87
2022/05/05 12:49:43;;;;;;;4.68;3.10;;;;;;;;;;4996068;28;20196;-86
2022/05/05 12:59:40;;;;;;;3.83;2.53;;;;;;;;;;4997678;28;20197;-86
2022/05/05 13:02:44;;;;;;;4.70;2.88;;;;;;;;;;4996219;28;20200;-87
2022/05/05 13:05:49;;;;;;;2.88;2.25;;;;;;;;;;5007527;28;20672;-86
2022/05/05 13:09:19;;;;;;;4.00;2.65;;;;;;;;;;5007083;28;20234;-86
2022/05/05 13:12:25;;;;;;;2.92;2.38;;;;;;;;;;5007809;28;20526;-86
2022/05/05 13:15:29;;;;;;;4.03;2.30;;;;;;;;;;4996232;28;20231;-86
2022/05/05 13:18:33;;;;;;;7.88;2.92;;;;;;;;;;5005228;28;20225;-86
2022/05/05 13:21:40;;;;;;;3.83;2.53;;;;;;;;;;4987622;28;20208;-87
2022/05/05 13:24:45;;;;;;;2.75;2.40;;;;;;;;;;4966825;28;20193;-86
2022/05/05 13:27:49;;;;;;;4.57;2.60;;;;;;;;;;5005983;28;20215;-86
2022/05/05 13:30:53;;;;;;;3.38;2.75;;;;;;;;;;4996321;28;20213;-86
2022/05/05 13:33:57;;;;;;;3.75;2.33;;;;;;;;;;4995901;28;20210;-86
2022/05/05 13:37:02;;;;;;;5.45;2.50;;;;;;;;;;4994803;28;20199;-86
2022/05/05 13:40:08;;;;;;;5.22;2.95;;;;;;;;;;4995515;28;20196;-87
2022/05/05 13:43:13;;;;;;;5.78;3.10;;;;;;;;;;4995984;28;20193;-86
2022/05/05 13:46:17;;;;;;;3.15;2.85;;;;;;;;;;5006639;28;20184;-86
2022/05/05 13:49:21;;;;;;;15.27;3.35;;;;;;;;;;4985260;28;20532;-86
2022/05/05 13:52:25;;;;;;;3.22;2.72;;;;;;;;;;4953207;28;20652;-86
2022/05/05 13:55:30;;;;;;;2.85;2.20;;;;;;;;;;4965198;28;20218;-86
2022/05/05 13:58:35;;;;;;;3.22;2.40;;;;;;;;;;4968269;28;20224;-87
2022/05/05 14:01:39;;;;;;;4.50;2.30;;;;;;;;;;4995087;28;20205;-86
2022/05/05 14:04:43;;;;;;;3.00;2.55;;;;;;;;;;4995559;28;20187;-86
2022/05/05 14:14:32;;;;;;;6.60;2.73;;;;;;;;;;4993506;28;20566;-86
2022/05/05 14:17:36;;;;;;;3.77;2.40;;;;;;;;;;5005502;28;20228;-86
2022/05/05 14:20:40;;;;;;;4.33;2.50;;;;;;;;;;4995578;28;20193;-86
2022/05/05 14:23:44;;;;;;;3.47;2.70;;;;;;;;;;4993450;28;20198;-86
2022/05/05 14:26:49;;;;;;;4.23;2.80;;;;;;;;;;4996434;28;20205;-86
2022/05/05 14:29:53;;;;;;;3.77;2.80;;;;;;;;;;5008947;28;20210;-86
2022/05/05 14:32:57;;;;;;;5.80;3.37;;;;;;;;;;4964695;28;20187;-86
2022/05/05 14:36:02;;;;;;;4.77;2.63;;;;;;;;;;4998105;28;20220;-86
2022/05/05 14:39:06;;;;;;;3.17;2.87;;;;;;;;;;5013928;28;20219;-85
2022/05/05 14:42:10;;;;;;;5.87;3.10;;;;;;;;;;4968059;28;20185;-85
2022/05/05 14:45:18;;;;;;;5.23;2.90;;;;;;;;;;5001228;28;20199;-85
2022/05/05 14:48:22;;;;;;;3.50;3.10;;;;;;;;;;4991996;28;20227;-85
2022/05/05 14:51:28;;;;;;;3.40;3.00;;;;;;;;;;4990107;28;20182;-85
2022/05/05 14:54:33;;;;;;;3.33;2.93;;;;;;;;;;4978533;28;20215;-85
2022/05/05 14:57:37;;;;;;;3.83;3.00;;;;;;;;;;4978179;28;20222;-85
2022/05/05 15:00:41;;;;;;;7.23;2.90;;;;;;;;;;4988976;28;20183;-85
2022/05/05 15:03:45;;;;;;;3.27;2.53;;;;;;;;;;4991420;28;20182;-85
2022/05/05 15:06:50;;;;;;;4.83;2.33;;;;;;;;;;4978478;28;20186;-86
2022/05/05 15:09:54;;;;;;;3.00;2.70;;;;;;;;;;4976056;28;20183;-86
2022/05/05 15:12:59;;;;;;;12.00;3.70;;;;;;;;;;4975552;28;20187;-86
2022/05/05 15:16:04;;;;;;;3.67;2.50;;;;;;;;;;4976255;28;20559;-87
2022/05/05 15:19:08;;;;;;;4.43;2.43;;;;;;;;;;4975912;28;20218;-86
2022/05/05 15:22:13;;;;;;;4.00;2.60;;;;;;;;;;4976043;28;20531;-86
2022/05/05 15:25:20;;;;;;;5.20;3.00;;;;;;;;;;4976071;28;20191;-86
2022/05/05 15:28:24;;;;;;;3.27;2.37;;;;;;;;;;4986734;28;20682;-85
2022/05/05 15:31:28;;;;;;;3.13;2.73;;;;;;;;;;4975181;28;20207;-85
2022/05/05 15:34:32;;;;;;;3.90;3.07;;;;;;;;;;4975380;28;20219;-85
2022/05/05 15:37:38;;;;;;;3.67;2.67;;;;;;;;;;4963860;28;20230;-85
2022/05/05 15:40:42;;;;;;;4.90;2.80;;;;;;;;;;4975416;28;20182;-86
2022/05/05 15:43:48;;;;;;;3.87;2.33;;;;;;;;;;4975670;28;20519;-86
2022/05/05 15:46:53;;;;;;;4.23;2.90;;;;;;;;;;4974882;28;20639;-86
2022/05/05 15:49:57;;;;;;;3.40;2.50;;;;;;;;;;4976238;28;20191;-86
2022/05/05 15:53:01;;;;;;;2.67;2.47;;;;;;;;;;4963601;28;20187;-87
2022/05/05 15:56:05;;;;;;;3.00;2.60;;;;;;;;;;4963217;28;20223;-86
2022/05/05 15:59:10;;;;;;;2.63;2.40;;;;;;;;;;4984570;28;20217;-86
2022/05/05 16:02:16;;;;;;;4.93;2.60;;;;;;;;;;4991146;28;20193;-86
2022/05/05 16:05:21;;;;;;;2.73;2.23;;;;;;;;;;4987529;28;20535;-86
2022/05/05 16:08:25;;;;;;;2.73;2.53;;;;;;;;;;4993850;28;20225;-86
2022/05/05 16:11:29;;;;;;;3.90;2.60;;;;;;;;;;4971888;28;20210;-85
2022/05/05 16:14:33;;;;;;;11.57;2.63;;;;;;;;;;4975661;28;20209;-86
2022/05/05 16:17:38;;;;;;;2.57;2.37;;;;;;;;;;4977993;28;20221;-85
2022/05/05 16:20:42;;;;;;;6.13;3.77;;;;;;;;;;4976714;28;20186;-86
2022/05/05 16:23:47;;;;;;;3.20;2.87;;;;;;;;;;5000241;28;20202;-85
2022/05/05 16:30:22;;;;;;;5.07;3.07;;;;;;;;;;4984129;28;20565;-86
2022/05/05 16:33:26;;;;;;;4.67;2.83;;;;;;;;;;4977687;28;20514;-86
2022/05/05 16:36:30;;;;;;;4.13;2.97;;;;;;;;;;5000626;28;20209;-86
2022/05/05 16:39:36;;;;;;;8.43;3.40;;;;;;;;;;4977885;28;20649;-85
2022/05/05 16:42:40;;;;;;;3.20;2.90;;;;;;;;;;4990107;28;20182;-87
2022/05/05 16:45:45;;;;;;;6.67;3.37;;;;;;;;;;5010224;28;20202;-85
2022/05/05 16:48:49;;;;;;;5.47;2.90;;;;;;;;;;4993095;28;20570;-85
2022/05/05 16:51:53;;;;;;;2.90;2.63;;;;;;;;;;5004094;28;20205;-85
2022/05/05 16:54:58;;;;;;;6.50;3.10;;;;;;;;;;4984826;28;20226;-86
2022/05/05 16:58:02;;;;;;;5.80;3.00;;;;;;;;;;5013717;28;20574;-85
2022/05/05 17:01:13;;;;;;;5.33;2.80;;;;;;;;;;5026608;28;20202;-85
2022/05/05 17:04:17;;;;;;;3.43;2.70;;;;;;;;;;4988537;28;20182;-86
2022/05/05 17:07:25;;;;;;;7.17;3.23;;;;;;;;;;4975391;28;20217;-86
2022/05/05 17:10:30;;;;;;;4.07;3.67;;;;;;;;;;4997899;28;20186;-85
2022/05/05 17:13:34;;;;;;;3.57;3.17;;;;;;;;;;4997917;28;20194;-86
2022/05/05 17:16:37;;;;;;;5.17;2.90;;;;;;;;;;4998674;28;20222;-85
2022/05/05 17:19:42;;;;;;;4.10;2.90;;;;;;;;;;4997973;28;20614;-88
2022/05/05 17:22:46;;;;;;;3.57;3.27;;;;;;;;;;4974456;28;20186;-88
2022/05/05 17:25:51;;;;;;;7.10;4.07;;;;;;;;;;4996571;28;20186;-87
2022/05/05 17:28:55;;;;;;;7.70;4.47;;;;;;;;;;4973621;28;20233;-89
2022/05/05 17:32:00;;;;;;;7.53;4.97;;;;;;;;;;4999115;28;20214;-89
2022/05/05 17:35:05;;;;;;;4.90;3.57;;;;;;;;;;5005765;28;20705;-87
2022/05/05 17:38:09;;;;;;;4.47;3.20;;;;;;;;;;5012122;28;20222;-87
2022/05/05 17:41:13;;;;;;;6.43;4.63;;;;;;;;;;5022903;28;20657;-87
2022/05/05 17:51:07;;;;;;;4.53;3.27;;;;;;;;;;5012422;28;20186;-87
2022/05/05 17:54:12;;;;;;;3.47;3.17;;;;;;;;;;5013851;28;20182;-87
2022/05/05 17:57:16;;;;;;;6.37;3.43;;;;;;;;;;5012318;28;20218;-87
2022/05/05 18:00:20;;;;;;;3.33;3.00;;;;;;;;;;5000847;28;20210;-86
2022/05/05 18:03:25;;;;;;;3.77;3.37;;;;;;;;;;4990309;28;20669;-87
2022/05/05 18:06:29;;;;;;;4.87;3.50;;;;;;;;;;4998461;28;20190;-89
2022/05/05 18:09:34;;;;;;;5.10;3.20;;;;;;;;;;4996059;28;20193;-89
2022/05/05 18:12:39;;;;;;;3.70;2.80;;;;;;;;;;4994737;28;20194;-89
2022/05/05 18:15:43;;;;;;;4.80;2.60;;;;;;;;;;4995443;28;20214;-89
2022/05/05 18:18:50;;;;;;;3.70;2.90;;;;;;;;;;5005781;28;20217;-88
2022/05/05 18:21:55;;;;;;;3.77;3.03;;;;;;;;;;4995413;28;20202;-89
2022/05/05 18:25:00;;;;;;;5.00;3.37;;;;;;;;;;5006369;28;20221;-88
2022/05/05 18:28:05;;;;;;;3.93;3.53;;;;;;;;;;4994573;28;20221;-88
2022/05/05 18:31:09;;;;;;;8.20;3.80;;;;;;;;;;4994717;28;20672;-89
2022/05/05 18:34:13;;;;;;;4.50;3.70;;;;;;;;;;5004226;28;20658;-88
2022/05/05 18:37:19;;;;;;;3.37;3.07;;;;;;;;;;4980939;28;20221;-88
2022/05/05 18:40:23;;;;;;;4.53;3.37;;;;;;;;;;5005498;28;20198;-88
2022/05/05 18:43:28;;;;;;;4.60;3.90;;;;;;;;;;4994797;28;20182;-89
2022/05/05 18:46:31;;;;;;;4.13;3.70;;;;;;;;;;4994408;28;20182;-88
2022/05/05 18:49:37;;;;;;;4.20;3.80;;;;;;;;;;5005362;28;20202;-88
2022/05/05 18:52:41;;;;;;;6.77;4.40;;;;;;;;;;4986482;28;20206;-88
2022/05/05 18:55:46;;;;;;;5.80;3.70;;;;;;;;;;4969023;28;20218;-88
2022/05/05 18:58:50;;;;;;;4.53;3.90;;;;;;;;;;5005279;28;20226;-88
2022/05/05 19:01:54;;;;;;;4.80;4.00;;;;;;;;;;4986792;28;20194;-88
2022/05/05 19:04:58;;;;;;;6.03;4.53;;;;;;;;;;4986424;28;20194;-88
2022/05/05 19:08:02;;;;;;;5.10;4.60;;;;;;;;;;4956835;28;20567;-88
2022/05/05 19:11:08;;;;;;;9.77;5.17;;;;;;;;;;4964657;28;20190;-88
2022/05/05 19:14:13;;;;;;;7.17;4.97;;;;;;;;;;4986364;28;20654;-88
2022/05/05 19:17:17;;;;;;;10.83;6.53;;;;;;;;;;4979824;28;20222;-88
2022/05/05 19:20:23;;;;;;;9.43;6.17;;;;;;;;;;4994255;28;20190;-88
2022/05/05 19:23:27;;;;;;;9.60;6.27;;;;;;;;;;4993665;28;20198;-88
2022/05/05 19:26:32;;;;;;;9.20;6.60;;;;;;;;;;4994188;28;20511;-88
2022/05/05 19:29:37;;;;;;;7.83;6.23;;;;;;;;;;4982328;28;20186;-88
2022/05/05 19:32:41;;;;;;;8.67;5.10;;;;;;;;;;4993378;28;20202;-88
2022/05/05 19:35:45;;;;;;;6.37;5.07;;;;;;;;;;4971749;28;20217;-88
2022/05/05 19:38:50;;;;;;;7.23;5.30;;;;;;;;;;4971358;28;20701;-88
2022/05/05 19:41:54;;;;;;;5.77;4.90;;;;;;;;;;4993465;28;20201;-88
2022/05/05 19:44:58;;;;;;;6.23;5.60;;;;;;;;;;4964485;28;20649;-88
2022/05/05 19:48:03;;;;;;;5.87;5.27;;;;;;;;;;4982386;28;20218;-88
2022/05/05 19:51:07;;;;;;;8.10;5.83;;;;;;;;;;5002440;28;20551;-88
2022/05/05 19:54:10;;;;;;;6.73;5.50;;;;;;;;;;5002647;28;20534;-88
2022/05/05 20:04:00;;;;;;;8.33;7.43;;;;;;;;;;4994928;28;20193;-88
2022/05/05 20:10:27;;;;;;;12.57;5.63;;;;;;;;;;4990954;28;20185;-88
2022/05/05 20:13:34;;;;;;;8.23;6.07;;;;;;;;;;5004895;28;20198;-88
2022/05/05 20:16:39;;;;;;;6.63;5.97;;;;;;;;;;5004576;28;20233;-87
2022/05/05 20:19:44;;;;;;;7.97;5.77;;;;;;;;;;4993850;28;20182;-88
2022/05/05 20:22:48;;;;;;;6.93;6.23;;;;;;;;;;4993670;28;20186;-88
2022/05/05 20:25:53;;;;;;;6.90;6.20;;;;;;;;;;4988772;28;20210;-88
2022/05/05 20:28:56;;;;;;;7.03;6.27;;;;;;;;;;4982141;28;20221;-87
2022/05/05 20:32:03;;;;;;;7.13;6.43;;;;;;;;;;4993841;28;20194;-86
2022/05/05 20:35:08;;;;;;;6.53;5.83;;;;;;;;;;4996135;28;20190;-87
2022/05/05 20:38:12;;;;;;;7.10;6.40;;;;;;;;;;4982988;28;20222;-86
2022/05/05 20:41:16;;;;;;;6.37;5.77;;;;;;;;;;5005357;28;20194;-87
2022/05/05 20:44:21;;;;;;;6.80;6.00;;;;;;;;;;4982214;28;20554;-85
2022/05/05 20:47:26;;;;;;;6.67;5.90;;;;;;;;;;4970811;28;20214;-85
2022/05/05 20:50:31;;;;;;;9.73;6.13;;;;;;;;;;4981998;28;20519;-86
2022/05/05 20:53:35;;;;;;;7.93;5.73;;;;;;;;;;4993358;28;20198;-85
2022/05/05 20:56:39;;;;;;;6.67;5.90;;;;;;;;;;4981924;28;20234;-85
2022/05/05 20:59:43;;;;;;;8.93;6.53;;;;;;;;;;4981909;28;20210;-85
2022/05/05 21:02:48;;;;;;;8.40;6.90;;;;;;;;;;4976804;28;20666;-85
2022/05/05 21:05:53;;;;;;;7.70;6.20;;;;;;;;;;4994923;28;20198;-85
2022/05/05 21:08:57;;;;;;;7.07;5.93;;;;;;;;;;4974116;28;20570;-85
2022/05/05 21:12:01;;;;;;;12.50;8.50;;;;;;;;;;4974104;28;20210;-88
2022/05/05 21:15:06;;;;;;;10.10;7.77;;;;;;;;;;4995851;28;20201;-87
2022/05/05 21:18:10;;;;;;;8.50;6.70;;;;;;;;;;5007297;28;20222;-87
2022/05/05 21:28:06;;;;;;;7.53;6.67;;;;;;;;;;5007529;28;20566;-87
2022/05/05 21:31:10;;;;;;;7.90;6.60;;;;;;;;;;4995566;28;20217;-88
2022/05/05 21:34:14;;;;;;;7.30;6.57;;;;;;;;;;4996101;28;20198;-88
2022/05/05 21:37:18;;;;;;;10.03;6.97;;;;;;;;;;5007179;28;20234;-87
2022/05/05 21:40:45;;;;;;;8.00;6.67;;;;;;;;;;5013928;28;20209;-87
2022/05/05 21:43:47;;;;;;;7.07;6.23;;;;;;;;;;4996023;28;20657;-88
2022/05/05 21:46:51;;;;;;;7.37;6.03;;;;;;;;;;5006664;28;20669;-87
2022/05/05 21:49:56;;;;;;;6.97;6.30;;;;;;;;;;4973912;28;20182;-87
2022/05/05 21:53:00;;;;;;;8.37;6.67;;;;;;;;;;4978531;28;20187;-88
2022/05/05 21:56:05;;;;;;;7.43;6.73;;;;;;;;;;4995595;28;20198;-87
2022/05/05 21:59:11;;;;;;;7.70;6.77;;;;;;;;;;5006418;28;20696;-87
2022/05/05 22:02:20;;;;;;;7.27;6.53;;;;;;;;;;4972932;28;20194;-87
2022/05/05 22:05:24;;;;;;;7.10;6.40;;;;;;;;;;4973660;28;20194;-87
2022/05/05 22:08:30;;;;;;;9.10;6.90;;;;;;;;;;4984108;28;20222;-87
2022/05/05 22:11:34;;;;;;;7.13;6.43;;;;;;;;;;4986803;28;20191;-87
2022/05/05 22:14:38;;;;;;;7.40;6.50;;;;;;;;;;4986872;28;20187;-88
2022/05/05 22:17:42;;;;;;;9.00;6.27;;;;;;;;;;4997433;28;20225;-87
2022/05/05 22:20:46;;;;;;;8.27;6.93;;;;;;;;;;5017691;28;20202;-87
2022/05/05 22:23:50;;;;;;;9.67;7.00;;;;;;;;;;4971395;28;20206;-84
2022/05/05 22:26:55;;;;;;;7.90;7.20;;;;;;;;;;5005830;28;20198;-87
2022/05/05 22:29:59;;;;;;;7.60;6.90;;;;;;;;;;4975948;28;20206;-85
2022/05/05 22:33:08;;;;;;;8.07;7.27;;;;;;;;;;4988447;28;20195;-85
2022/05/05 22:36:13;;;;;;;8.33;7.17;;;;;;;;;;4999454;28;20665;-85
2022/05/05 22:39:17;;;;;;;8.87;7.13;;;;;;;;;;4975858;28;20634;-85
2022/05/05 22:42:22;;;;;;;10.40;7.60;;;;;;;;;;4984482;28;20194;-88
2022/05/05 22:45:27;;;;;;;8.10;7.17;;;;;;;;;;4992786;28;20182;-86
2022/05/05 22:51:55;;;;;;;9.00;7.10;;;;;;;;;;4976349;28;20187;-88
2022/05/05 22:55:00;;;;;;;8.40;7.23;;;;;;;;;;4987195;28;20182;-87
2022/05/05 22:58:05;;;;;;;10.93;7.37;;;;;;;;;;4996996;28;20242;-88
2022/05/05 23:01:09;;;;;;;10.27;7.20;;;;;;;;;;5008689;28;20194;-88
2022/05/05 23:04:13;;;;;;;8.33;7.20;;;;;;;;;;4996951;28;20228;-86
2022/05/05 23:07:17;;;;;;;9.33;7.07;;;;;;;;;;4994404;28;20221;-88
2022/05/05 23:10:21;;;;;;;7.90;7.03;;;;;;;;;;4983366;28;20186;-88
2022/05/05 23:13:25;;;;;;;7.20;6.60;;;;;;;;;;4984490;28;20194;-85
2022/05/05 23:16:29;;;;;;;7.57;6.87;;;;;;;;;;5006150;28;20649;-87
2022/05/05 23:19:34;;;;;;;7.73;6.97;;;;;;;;;;5004387;28;20194;-88
2022/05/05 23:22:39;;;;;;;12.70;7.47;;;;;;;;;;5002926;28;20198;-85
2022/05/05 23:25:43;;;;;;;7.40;6.70;;;;;;;;;;5005232;28;20693;-85
2022/05/05 23:28:47;;;;;;;7.73;6.93;;;;;;;;;;5008920;28;20217;-88
2022/05/05 23:31:51;;;;;;;7.27;6.50;;;;;;;;;;4994781;28;20669;-85
2022/05/05 23:38:18;;;;;;;9.03;7.37;;;;;;;;;;4993360;28;20230;-88
2022/05/05 23:41:22;;;;;;;8.17;7.37;;;;;;;;;;4992334;28;20202;-87
2022/05/05 23:44:29;;;;;;;7.80;7.00;;;;;;;;;;4993956;28;20189;-87
2022/05/05 23:47:37;;;;;;;7.43;6.73;;;;;;;;;;4993971;28;20563;-87
2022/05/05 23:50:41;;;;;;;8.47;7.57;;;;;;;;;;4970602;28;20195;-87
2022/05/05 23:53:45;;;;;;;7.90;7.20;;;;;;;;;;4963434;28;20191;-87
2022/05/05 23:56:52;;;;;;;8.53;7.30;;;;;;;;;;4985597;28;20191;-87
2022/05/05 23:59:56;;;;;;;7.67;6.97;;;;;;;;;;4986051;28;20202;-85
